.
WxDataArchive / Data Records for 2009-11-21
2009-11-20 November 2009 2009-11-22

Data Records for Saturday, 21 November 2009

Time	Temp	Chill	HIndex	Humid	Dewpt	 Wind 	HiWind	WindDir	Rain 	Barom 
-----	----	-----	------	-----	-----	------	------	-------	-----	----- 
00:00	41.8	41.8	41.8	87	38.2	0	0	---	0.00	30.188 
00:05	41.8	41.8	41.8	87	38.2	0	1	248	0.00	30.188 
00:10	41.8	41.8	41.8	87	38.2	0	0	---	0.00	30.188 
00:15	41.8	41.8	41.8	86	37.9	0	0	---	0.00	30.184 
00:20	41.8	41.8	41.8	86	37.9	0	0	---	0.00	30.184 
00:25	41.6	41.6	41.6	86	37.7	0	0	---	0.00	30.184 
00:30	41.5	41.5	41.5	86	37.6	0	0	---	0.00	30.182 
00:35	41.3	41.3	41.3	87	37.7	0	0	---	0.00	30.182 
00:40	41.3	41.3	41.3	87	37.7	0	0	---	0.00	30.182 
00:45	41.2	41.2	41.2	87	37.6	0	0	---	0.00	30.181 
00:50	41.1	41.1	41.1	87	37.5	0	0	---	0.00	30.181 
00:55	40.9	40.9	40.9	87	37.3	0	0	---	0.00	30.181 
01:00	40.6	40.6	40.6	87	37.0	0	0	---	0.00	30.175 
01:05	40.5	40.5	40.5	87	36.9	0	0	---	0.00	30.175 
01:10	40.2	40.2	40.2	88	36.9	0	0	---	0.00	30.175 
01:15	39.9	39.9	39.9	88	36.6	0	0	---	0.00	30.172 
01:20	39.6	39.6	39.6	88	36.3	0	0	---	0.00	30.172 
01:25	39.3	39.3	39.3	88	36.0	0	0	---	0.00	30.172 
01:30	39.1	39.1	39.1	88	35.9	0	0	---	0.00	30.171 
01:35	38.8	38.8	38.8	89	35.8	0	0	---	0.00	30.171 
01:40	38.5	38.5	38.5	89	35.5	0	0	---	0.00	30.171 
01:45	38.2	38.2	38.2	89	35.2	0	0	---	0.00	30.172 
01:50	38.0	38.0	38.0	89	35.1	0	0	---	0.00	30.172 
01:55	37.8	37.8	37.8	89	34.9	0	0	---	0.00	30.172 
02:00	37.5	37.5	37.5	90	34.8	0	0	---	0.00	30.172 
02:05	37.3	37.3	37.3	90	34.6	0	0	---	0.00	30.172 
02:10	37.0	37.0	37.0	90	34.3	0	0	---	0.00	30.172 
02:15	36.9	36.9	36.9	90	34.2	0	0	---	0.00	30.168 
02:20	36.9	36.9	36.9	91	34.5	0	0	---	0.00	30.168 
02:25	36.8	36.8	36.8	91	34.4	0	0	---	0.00	30.168 
02:30	36.8	36.8	36.8	91	34.4	0	0	---	0.00	30.169 
02:35	36.6	36.6	36.6	91	34.2	0	0	---	0.00	30.169 
02:40	36.5	36.5	36.5	91	34.1	0	0	---	0.00	30.169 
02:45	36.3	36.3	36.3	91	33.9	0	0	---	0.00	30.173 
02:50	36.0	36.0	36.0	92	33.9	0	0	---	0.00	30.173 
02:55	35.9	35.9	35.9	92	33.8	0	0	---	0.00	30.173 
03:00	35.6	35.6	35.6	92	33.5	0	0	---	0.00	30.175 
03:05	35.5	35.5	35.5	92	33.4	0	0	---	0.00	30.175 
03:10	35.2	35.2	35.2	92	33.1	0	0	---	0.00	30.175 
03:15	35.0	35.0	35.0	92	32.9	0	0	---	0.00	30.174 
03:20	34.9	34.9	34.9	92	32.8	0	0	---	0.00	30.174 
03:25	34.7	34.7	34.7	92	32.6	0	0	---	0.00	30.174 
03:30	34.6	34.6	34.6	92	32.5	0	0	---	0.00	30.173 
03:35	34.4	34.4	34.4	92	32.3	0	0	---	0.00	30.173 
03:40	34.3	34.3	34.3	92	32.2	0	0	---	0.00	30.173 
03:45	34.1	34.1	34.1	92	32.0	0	0	---	0.00	30.172 
03:50	34.1	34.1	34.1	92	32.0	0	0	---	0.00	30.172 
03:55	34.1	34.1	34.1	92	32.0	0	0	---	0.00	30.172 
04:00	34.1	34.1	34.1	92	32.0	0	0	---	0.00	30.174 
04:05	34.1	34.1	34.1	93	32.3	0	0	---	0.00	30.174 
04:10	34.1	34.1	34.1	93	32.3	0	0	---	0.00	30.174 
04:15	34.0	34.0	34.0	93	32.2	0	0	---	0.00	30.175 
04:20	34.0	34.0	34.0	93	32.2	0	0	---	0.00	30.175 
04:25	34.1	34.1	34.1	93	32.3	0	0	---	0.00	30.175 
04:30	34.3	34.3	34.3	93	32.5	0	0	---	0.00	30.175 
04:35	34.4	34.4	34.4	93	32.6	0	0	---	0.00	30.175 
04:40	34.4	34.4	34.4	93	32.6	0	0	---	0.00	30.175 
04:45	34.3	34.3	34.3	93	32.5	0	0	---	0.00	30.175 
04:50	34.0	34.0	34.0	93	32.2	0	0	---	0.00	30.175 
04:55	33.8	33.8	33.8	93	32.0	0	0	---	0.00	30.175 
05:00	33.5	33.5	33.5	93	31.7	0	0	---	0.00	30.178 
05:05	33.4	33.4	33.4	93	31.6	0	0	---	0.00	30.178 
05:10	33.1	33.1	33.1	93	31.3	0	0	---	0.00	30.178 
05:15	32.9	32.9	32.9	93	31.1	0	0	---	0.00	30.183 
05:20	32.9	32.9	32.9	93	31.1	0	0	---	0.00	30.183 
05:25	32.8	32.8	32.8	93	31.0	0	0	---	0.00	30.183 
05:30	32.7	32.7	32.7	93	30.9	0	0	---	0.00	30.182 
05:35	32.5	32.5	32.5	93	30.7	0	0	---	0.00	30.182 
05:40	32.4	32.4	32.4	93	30.6	0	0	---	0.00	30.182 
05:45	32.2	32.2	32.2	93	30.4	0	0	---	0.00	30.185 
05:50	32.2	32.2	32.2	93	30.4	0	0	---	0.00	30.185 
05:55	32.1	32.1	32.1	93	30.3	0	0	---	0.00	30.185 
06:00	31.9	31.9	31.9	94	30.4	0	0	---	0.00	30.188 
06:05	31.9	31.9	31.9	94	30.4	0	0	---	0.00	30.188 
06:10	31.9	31.9	31.9	94	30.4	0	0	---	0.00	30.188 
06:15	31.9	31.9	31.9	94	30.4	0	0	---	0.00	30.196 
06:20	31.9	31.9	31.9	94	30.4	0	0	---	0.00	30.196 
06:25	31.9	31.9	31.9	94	30.4	0	0	---	0.00	30.196 
06:30	31.9	31.9	31.9	94	30.4	0	0	---	0.00	30.198 
06:35	31.9	31.9	31.9	94	30.4	0	0	---	0.00	30.198 
06:40	31.8	31.8	31.8	94	30.3	0	0	---	0.00	30.198 
06:45	31.8	31.8	31.8	94	30.3	0	0	---	0.00	30.200 
06:50	31.8	31.8	31.8	94	30.3	0	0	---	0.00	30.200 
06:55	31.8	31.8	31.8	94	30.3	0	0	---	0.00	30.200 
07:00	31.9	31.9	31.9	94	30.4	0	0	---	0.00	30.202 
07:05	32.1	32.1	32.1	94	30.6	0	0	---	0.00	30.202 
07:10	32.4	32.4	32.4	94	30.9	0	0	---	0.00	30.202 
07:15	32.5	32.5	32.5	95	31.2	0	0	---	0.00	30.205 
07:20	32.7	32.7	32.7	95	31.4	0	0	---	0.00	30.205 
07:25	32.9	32.9	32.9	95	31.6	0	0	---	0.00	30.205 
07:30	33.1	33.1	33.1	95	31.8	0	0	---	0.00	30.213 
07:35	33.1	33.1	33.1	95	31.8	0	0	---	0.00	30.213 
07:40	33.4	33.4	33.4	95	32.1	0	0	---	0.00	30.213 
07:45	33.5	33.5	33.5	95	32.2	0	0	---	0.00	30.215 
07:50	33.7	33.7	33.7	95	32.4	0	0	---	0.00	30.215 
07:55	33.7	33.7	33.7	95	32.4	0	0	---	0.00	30.215 
08:00	33.8	33.8	33.8	95	32.5	0	0	---	0.00	30.216 
08:05	33.8	33.8	33.8	95	32.5	0	0	---	0.00	30.216 
08:10	34.0	34.0	34.0	95	32.7	0	0	---	0.00	30.216 
08:15	34.1	34.1	34.1	95	32.8	0	0	---	0.00	30.218 
08:20	34.3	34.3	34.3	95	33.0	0	0	---	0.00	30.218 
08:25	34.4	34.4	34.4	95	33.1	0	0	---	0.00	30.218 
08:30	34.4	34.4	34.4	95	33.1	0	0	---	0.00	30.222 
08:35	34.6	34.6	34.6	95	33.3	0	0	---	0.00	30.222 
08:40	34.7	34.7	34.7	95	33.4	0	0	---	0.00	30.222 
08:45	34.9	34.9	34.9	95	33.6	0	0	---	0.00	30.228 
08:50	35.0	35.0	35.0	95	33.7	0	0	---	0.00	30.228 
08:55	35.3	35.3	35.3	95	34.0	0	0	---	0.00	30.228 
09:00	35.6	35.6	35.6	95	34.3	0	0	---	0.00	30.228 
09:05	36.2	36.2	36.2	96	35.2	0	0	---	0.00	30.228 
09:10	36.9	36.9	36.9	96	35.9	0	0	---	0.00	30.228 
09:15	37.6	37.6	37.6	96	36.6	0	0	---	0.00	30.229 
09:20	38.2	38.2	38.2	96	37.2	0	0	---	0.00	30.229 
09:25	39.1	39.1	39.1	96	38.1	0	0	---	0.00	30.229 
09:30	39.6	39.6	39.6	96	38.6	0	0	---	0.00	30.227 
09:35	40.1	40.1	40.1	96	39.1	0	0	---	0.00	30.227 
09:40	40.3	40.3	40.3	96	39.3	0	1	248	0.00	30.227 
09:45	40.6	40.6	40.6	96	39.5	0	0	---	0.00	30.230 
09:50	41.1	41.1	41.1	96	40.0	0	0	---	0.00	30.230 
09:55	41.6	41.6	41.6	96	40.5	0	1	248	0.00	30.230 
10:00	41.9	41.9	41.9	96	40.8	0	0	---	0.00	30.235 
10:05	42.5	42.5	42.5	96	41.4	0	1	248	0.00	30.235 
10:10	43.1	43.1	43.1	96	42.0	0	1	248	0.00	30.235 
10:15	43.5	43.5	43.5	95	42.2	0	1	248	0.00	30.238 
10:20	44.1	44.1	44.1	94	42.5	0	1	248	0.00	30.238 
10:25	44.6	44.6	44.6	92	42.4	0	0	---	0.00	30.238 
10:30	45.1	45.1	45.1	90	42.3	0	1	248	0.00	30.237 
10:35	45.5	45.5	45.5	88	42.2	0	1	248	0.00	30.237 
10:40	46.0	46.0	46.0	86	42.0	0	1	248	0.00	30.237 
10:45	46.2	46.2	46.2	84	41.6	0	1	248	0.00	30.237 
10:50	46.7	46.7	46.7	80	40.9	0	0	---	0.00	30.237 
10:55	47.1	47.1	47.1	78	40.6	0	1	248	0.00	30.237 
11:00	47.6	47.6	47.6	76	40.4	0	0	---	0.00	30.235 
11:05	48.0	48.0	48.0	70	38.7	0	0	---	0.00	30.235 
11:10	48.5	48.5	48.5	68	38.4	0	1	248	0.00	30.235 
11:15	49.1	49.1	49.1	67	38.6	0	2	248	0.00	30.235 
11:20	49.5	49.5	49.5	64	37.8	0	2	180	0.00	30.235 
11:25	49.8	49.8	49.8	62	37.3	0	2	202	0.00	30.235 
11:30	49.9	49.9	49.9	62	37.4	0	1	202	0.00	30.232 
11:35	49.8	49.8	49.8	62	37.3	0	1	202	0.00	30.232 
11:40	49.8	49.8	49.8	62	37.3	0	1	202	0.00	30.232 
11:45	49.9	49.9	49.9	61	37.0	1	4	248	0.00	30.225 
11:50	50.1	50.1	50.1	62	37.6	0	1	248	0.00	30.225 
11:55	49.9	49.9	49.9	60	36.6	0	1	248	0.00	30.225 
12:00	49.9	49.9	49.9	62	37.4	0	2	248	0.00	30.224 
12:05	50.2	50.2	50.2	60	36.9	0	1	248	0.00	30.224 
12:10	50.4	50.4	50.4	60	37.0	0	2	248	0.00	30.224 
12:15	50.7	50.7	50.7	60	37.3	0	2	248	0.00	30.219 
12:20	50.7	50.7	50.7	60	37.3	0	1	248	0.00	30.219 
12:25	51.0	51.0	51.0	61	38.0	0	2	248	0.00	30.219 
12:30	51.1	51.1	51.1	60	37.7	0	2	248	0.00	30.218 
12:35	51.1	51.1	51.1	59	37.3	0	3	248	0.00	30.218 
12:40	51.1	51.1	51.1	60	37.7	1	4	248	0.00	30.218 
12:45	51.1	51.1	51.1	59	37.3	1	4	248	0.00	30.216 
12:50	51.3	51.3	51.3	61	38.3	0	1	248	0.00	30.216 
12:55	51.3	51.3	51.3	60	37.9	1	3	90	0.00	30.216 
13:00	51.3	51.3	51.3	60	37.9	0	3	90	0.00	30.213 
13:05	51.3	51.3	51.3	59	37.5	0	2	225	0.00	30.213 
13:10	51.3	51.3	51.3	59	37.5	1	4	90	0.00	30.213 
13:15	51.3	51.3	51.3	59	37.5	0	2	292	0.00	30.212 
13:20	51.3	51.3	51.3	59	37.5	1	3	112	0.00	30.212 
13:25	51.4	51.4	51.4	59	37.6	0	2	248	0.00	30.212 
13:30	51.7	51.7	51.7	57	37.0	0	2	248	0.00	30.207 
13:35	51.6	51.6	51.6	56	36.4	0	2	292	0.00	30.207 
13:40	51.4	51.4	51.4	59	37.6	0	2	292	0.00	30.207 
13:45	51.6	51.6	51.6	58	37.3	0	1	292	0.00	30.205 
13:50	51.7	51.7	51.7	57	37.0	0	0	---	0.00	30.205 
13:55	51.7	51.7	51.7	58	37.4	0	2	292	0.00	30.205 
14:00	52.0	52.0	52.0	60	38.5	0	2	292	0.00	30.203 
14:05	52.0	52.0	52.0	56	36.8	1	3	112	0.00	30.203 
14:10	51.9	51.9	51.9	57	37.1	1	3	112	0.00	30.203 
14:15	51.7	51.7	51.7	57	37.0	1	2	112	0.00	30.204 
14:20	51.6	51.6	51.6	59	37.7	0	2	202	0.00	30.204 
14:25	51.7	51.7	51.7	58	37.4	0	1	90	0.00	30.204 
14:30	51.9	51.9	51.9	60	38.5	1	2	315	0.00	30.202 
14:35	52.0	52.0	52.0	59	38.1	0	3	225	0.00	30.202 
14:40	52.2	52.2	52.2	59	38.3	0	2	225	0.00	30.202 
14:45	52.0	52.0	52.0	57	37.2	0	2	202	0.00	30.196 
14:50	51.9	51.9	51.9	58	37.6	0	1	202	0.00	30.196 
14:55	51.9	51.9	51.9	58	37.6	0	1	202	0.00	30.196 
15:00	51.9	51.9	51.9	58	37.6	0	2	90	0.00	30.194 
15:05	51.7	51.7	51.7	58	37.4	0	3	90	0.00	30.194 
15:10	51.7	51.7	51.7	58	37.4	0	3	90	0.00	30.194 
15:15	51.7	51.7	51.7	59	37.8	1	3	112	0.00	30.196 
15:20	51.7	51.7	51.7	58	37.4	1	2	135	0.00	30.196 
15:25	51.7	51.7	51.7	58	37.4	0	2	112	0.00	30.196 
15:30	51.6	51.6	51.6	58	37.3	0	2	135	0.00	30.195 
15:35	51.6	51.6	51.6	61	38.6	0	3	112	0.00	30.195 
15:40	51.7	51.7	51.7	61	38.7	0	2	270	0.00	30.195 
15:45	51.7	51.7	51.7	61	38.7	1	4	270	0.00	30.195 
15:50	51.7	51.7	51.7	61	38.7	0	3	248	0.03	30.195 
15:55	51.6	51.6	51.6	60	38.2	0	2	225	0.00	30.195 
16:00	51.4	51.4	51.4	61	38.4	0	3	90	0.00	30.197 
16:05	51.1	51.1	51.1	61	38.1	0	2	90	0.00	30.197 
16:10	51.0	51.0	51.0	62	38.4	0	1	90	0.00	30.197 
16:15	50.8	50.8	50.8	62	38.3	0	1	90	0.00	30.200 
16:20	50.5	50.5	50.5	62	38.0	0	1	90	0.00	30.200 
16:25	50.4	50.4	50.4	62	37.9	0	2	90	0.00	30.200 
16:30	50.2	50.2	50.2	64	38.5	0	1	90	0.00	30.204 
16:35	49.9	49.9	49.9	64	38.2	0	1	90	0.00	30.204 
16:40	49.8	49.8	49.8	64	38.1	0	1	90	0.00	30.204 
16:45	49.5	49.5	49.5	65	38.2	0	0	---	0.00	30.206 
16:50	49.1	49.1	49.1	65	37.8	0	0	---	0.00	30.206 
16:55	48.8	48.8	48.8	66	38.0	0	0	---	0.00	30.206 
17:00	48.5	48.5	48.5	66	37.7	0	0	---	0.00	30.211 
17:05	48.2	48.2	48.2	67	37.8	0	0	---	0.00	30.211 
17:10	47.7	47.7	47.7	67	37.3	0	0	---	0.00	30.211 
17:15	47.4	47.4	47.4	68	37.4	0	0	---	0.00	30.215 
17:20	47.0	47.0	47.0	69	37.4	0	0	---	0.00	30.215 
17:25	46.5	46.5	46.5	69	36.9	0	0	---	0.00	30.215 
17:30	46.0	46.0	46.0	69	36.4	0	0	---	0.00	30.217 
17:35	45.5	45.5	45.5	71	36.7	0	0	---	0.00	30.217 
17:40	45.1	45.1	45.1	72	36.6	0	0	---	0.00	30.217 
17:45	44.6	44.6	44.6	73	36.5	0	0	---	0.00	30.227 
17:50	44.1	44.1	44.1	75	36.7	0	0	---	0.00	30.227 
17:55	43.6	43.6	43.6	76	36.5	0	0	---	0.00	30.227 
18:00	43.3	43.3	43.3	77	36.6	0	0	---	0.00	30.231 
18:05	42.9	42.9	42.9	78	36.5	0	0	---	0.00	30.231 
18:10	42.6	42.6	42.6	79	36.6	0	0	---	0.00	30.231 
18:15	42.2	42.2	42.2	80	36.5	0	0	---	0.00	30.234 
18:20	41.9	41.9	41.9	80	36.2	0	0	---	0.00	30.234 
18:25	41.6	41.6	41.6	81	36.2	0	0	---	0.00	30.234 
18:30	41.3	41.3	41.3	82	36.2	0	0	---	0.00	30.236 
18:35	41.1	41.1	41.1	82	36.0	0	0	---	0.00	30.236 
18:40	40.8	40.8	40.8	82	35.7	0	0	---	0.00	30.236 
18:45	40.5	40.5	40.5	83	35.8	0	0	---	0.00	30.236 
18:50	40.2	40.2	40.2	83	35.5	0	0	---	0.00	30.236 
18:55	39.9	39.9	39.9	84	35.5	0	0	---	0.00	30.236 
19:00	39.8	39.8	39.8	85	35.7	0	0	---	0.00	30.241 
19:05	39.6	39.6	39.6	85	35.5	0	0	---	0.00	30.241 
19:10	39.5	39.5	39.5	86	35.7	0	0	---	0.00	30.241 
19:15	39.5	39.5	39.5	86	35.7	0	0	---	0.00	30.240 
19:20	39.2	39.2	39.2	86	35.4	0	0	---	0.00	30.240 
19:25	38.9	38.9	38.9	87	35.4	0	0	---	0.00	30.240 
19:30	38.8	38.8	38.8	87	35.3	0	0	---	0.00	30.245 
19:35	38.6	38.6	38.6	88	35.4	0	0	---	0.00	30.245 
19:40	38.5	38.5	38.5	88	35.3	0	0	---	0.00	30.245 
19:45	38.3	38.3	38.3	88	35.1	0	0	---	0.00	30.251 
19:50	38.2	38.2	38.2	88	35.0	0	0	---	0.00	30.251 
19:55	38.0	38.0	38.0	89	35.1	0	0	---	0.00	30.251 
20:00	37.9	37.9	37.9	89	35.0	0	0	---	0.00	30.252 
20:05	37.8	37.8	37.8	89	34.9	0	0	---	0.00	30.252 
20:10	37.5	37.5	37.5	89	34.6	0	0	---	0.00	30.252 
20:15	37.3	37.3	37.3	90	34.6	0	0	---	0.00	30.253 
20:20	37.3	37.3	37.3	90	34.6	0	0	---	0.00	30.253 
20:25	37.2	37.2	37.2	90	34.5	0	0	---	0.00	30.253 
20:30	37.2	37.2	37.2	90	34.5	0	0	---	0.00	30.255 
20:35	37.2	37.2	37.2	91	34.8	0	0	---	0.00	30.255 
20:40	37.2	37.2	37.2	91	34.8	0	0	---	0.00	30.255 
20:45	37.3	37.3	37.3	91	34.9	0	0	---	0.00	30.255 
20:50	37.3	37.3	37.3	92	35.2	0	0	---	0.00	30.255 
20:55	37.2	37.2	37.2	92	35.1	0	0	---	0.00	30.255 
21:00	37.0	37.0	37.0	92	34.9	0	0	---	0.00	30.253 
21:05	36.8	36.8	36.8	92	34.7	0	0	---	0.00	30.253 
21:10	36.6	36.6	36.6	92	34.5	0	0	---	0.00	30.253 
21:15	36.5	36.5	36.5	92	34.4	0	0	---	0.00	30.247 
21:20	36.5	36.5	36.5	92	34.4	0	0	---	0.00	30.247 
21:25	36.3	36.3	36.3	92	34.2	0	0	---	0.00	30.247 
21:30	36.3	36.3	36.3	92	34.2	0	0	---	0.00	30.247 
21:35	36.2	36.2	36.2	92	34.1	0	0	---	0.00	30.247 
21:40	36.0	36.0	36.0	92	33.9	0	0	---	0.00	30.247 
21:45	36.0	36.0	36.0	92	33.9	0	0	---	0.00	30.249 
21:50	35.8	35.8	35.8	92	33.7	0	0	---	0.00	30.249 
21:55	35.8	35.8	35.8	93	34.0	0	0	---	0.00	30.249 
22:00	35.8	35.8	35.8	93	34.0	0	0	---	0.00	30.245 
22:05	35.6	35.6	35.6	93	33.8	0	0	---	0.00	30.245 
22:10	35.6	35.6	35.6	93	33.8	0	0	---	0.00	30.245 
22:15	35.6	35.6	35.6	93	33.8	0	0	---	0.00	30.236 
22:20	35.5	35.5	35.5	93	33.7	0	0	---	0.00	30.236 
22:25	35.3	35.3	35.3	93	33.5	0	0	---	0.00	30.236 
22:30	35.3	35.3	35.3	93	33.5	0	0	---	0.00	30.232 
22:35	35.3	35.3	35.3	93	33.5	0	0	---	0.00	30.232 
22:40	35.2	35.2	35.2	93	33.4	0	0	---	0.00	30.232 
22:45	35.2	35.2	35.2	93	33.4	0	0	---	0.00	30.240 
22:50	35.0	35.0	35.0	93	33.2	0	0	---	0.00	30.240 
22:55	35.0	35.0	35.0	93	33.2	0	0	---	0.00	30.240 
23:00	34.9	34.9	34.9	93	33.1	0	0	---	0.00	30.242 
23:05	34.9	34.9	34.9	93	33.1	0	0	---	0.00	30.242 
23:10	34.7	34.7	34.7	93	32.9	0	0	---	0.00	30.242 
23:15	34.6	34.6	34.6	93	32.8	0	0	---	0.00	30.239 
23:20	34.6	34.6	34.6	94	33.1	0	0	---	0.00	30.239 
23:25	34.4	34.4	34.4	93	32.6	0	0	---	0.00	30.239 
23:30	34.3	34.3	34.3	94	32.8	0	0	---	0.00	30.239 
23:35	34.1	34.1	34.1	94	32.6	0	0	---	0.00	30.239 
23:40	34.1	34.1	34.1	94	32.6	0	0	---	0.00	30.239 
23:45	34.0	34.0	34.0	94	32.5	0	0	---	0.00	30.240 
23:50	33.8	33.8	33.8	94	32.3	0	0	---	0.00	30.240 
23:55	33.7	33.7	33.7	94	32.2	0	0	---	0.00	30.240 

CoCoRaHS
IN-AL-39
A2 Web Hosting
Creative Commons License
GoDaddy
search engine by freefind advanced

loaded 2018-11-19 18:42:12 • last modified 2010-11-18 10:43:29
Privacy PolicyDisclaimer
• wx.awcolley.com is powered by PmWiki v.2002016 •
• all content (unless otherwise noted) © 2018 A W Colley